sensor_id;sensor_type;location;lat;lon;timestamp;temperature;humidity
15143;DHT22;7672;50.834;6.286;2023-08-21T00:01:48;22.90;99.90
15143;DHT22;7672;50.834;6.286;2023-08-21T00:04:15;22.80;99.90
15143;DHT22;7672;50.834;6.286;2023-08-21T00:06:42;22.80;99.90
15143;DHT22;7672;50.834;6.286;2023-08-21T00:09:10;22.90;99.90
15143;DHT22;7672;50.834;6.286;2023-08-21T00:11:37;22.80;99.90
15143;DHT22;7672;50.834;6.286;2023-08-21T00:14:04;22.80;99.90
15143;DHT22;7672;50.834;6.286;2023-08-21T00:16:31;22.90;99.90
15143;DHT22;7672;50.834;6.286;2023-08-21T00:18:58;22.70;99.90
15143;DHT22;7672;50.834;6.286;2023-08-21T00:21:26;22.80;99.90
15143;DHT22;7672;50.834;6.286;2023-08-21T00:23:53;22.70;99.90
15143;DHT22;7672;50.834;6.286;2023-08-21T00:26:20;22.70;99.90
15143;DHT22;7672;50.834;6.286;2023-08-21T00:28:47;22.70;99.90
15143;DHT22;7672;50.834;6.286;2023-08-21T00:31:14;22.70;99.90
15143;DHT22;7672;50.834;6.286;2023-08-21T00:33:43;22.70;99.90
15143;DHT22;7672;50.834;6.286;2023-08-21T00:36:10;22.70;99.90
15143;DHT22;7672;50.834;6.286;2023-08-21T00:38:37;22.60;99.90
15143;DHT22;7672;50.834;6.286;2023-08-21T00:41:04;22.70;99.90
15143;DHT22;7672;50.834;6.286;2023-08-21T00:43:32;22.70;99.90
15143;DHT22;7672;50.834;6.286;2023-08-21T00:45:59;22.70;99.90
15143;DHT22;7672;50.834;6.286;2023-08-21T00:48:26;22.50;99.90
15143;DHT22;7672;50.834;6.286;2023-08-21T00:50:54;22.60;99.90
15143;DHT22;7672;50.834;6.286;2023-08-21T00:53:22;22.60;99.90
15143;DHT22;7672;50.834;6.286;2023-08-21T00:55:51;22.60;99.90
15143;DHT22;7672;50.834;6.286;2023-08-21T00:58:18;22.50;99.90
15143;DHT22;7672;50.834;6.286;2023-08-21T01:00:46;22.60;99.90
15143;DHT22;7672;50.834;6.286;2023-08-21T01:03:17;22.70;99.90
15143;DHT22;7672;50.834;6.286;2023-08-21T01:05:44;22.50;99.90
15143;DHT22;7672;50.834;6.286;2023-08-21T01:08:24;22.40;99.90
15143;DHT22;7672;50.834;6.286;2023-08-21T01:11:05;22.50;99.90
15143;DHT22;7672;50.834;6.286;2023-08-21T01:13:54;22.40;99.90
15143;DHT22;7672;50.834;6.286;2023-08-21T01:16:31;22.40;99.90
15143;DHT22;7672;50.834;6.286;2023-08-21T01:19:01;22.40;99.90
15143;DHT22;7672;50.834;6.286;2023-08-21T01:21:30;22.40;99.90
15143;DHT22;7672;50.834;6.286;2023-08-21T01:23:57;22.40;99.90
15143;DHT22;7672;50.834;6.286;2023-08-21T01:26:25;22.40;99.90
15143;DHT22;7672;50.834;6.286;2023-08-21T01:28:52;22.30;99.90
15143;DHT22;7672;50.834;6.286;2023-08-21T01:31:34;22.30;99.90
15143;DHT22;7672;50.834;6.286;2023-08-21T01:34:06;22.20;99.90
15143;DHT22;7672;50.834;6.286;2023-08-21T01:36:37;22.20;99.90
15143;DHT22;7672;50.834;6.286;2023-08-21T01:39:06;22.20;99.90
15143;DHT22;7672;50.834;6.286;2023-08-21T01:41:33;22.40;99.90
15143;DHT22;7672;50.834;6.286;2023-08-21T01:44:01;22.00;99.90
15143;DHT22;7672;50.834;6.286;2023-08-21T01:46:28;22.10;99.90
15143;DHT22;7672;50.834;6.286;2023-08-21T01:48:55;22.10;99.90
15143;DHT22;7672;50.834;6.286;2023-08-21T01:51:22;22.10;99.90
15143;DHT22;7672;50.834;6.286;2023-08-21T01:53:49;22.00;99.90
15143;DHT22;7672;50.834;6.286;2023-08-21T01:56:16;22.00;99.90
15143;DHT22;7672;50.834;6.286;2023-08-21T01:58:44;22.00;99.90
15143;DHT22;7672;50.834;6.286;2023-08-21T02:01:11;22.00;99.90
15143;DHT22;7672;50.834;6.286;2023-08-21T02:03:40;22.00;99.90
15143;DHT22;7672;50.834;6.286;2023-08-21T02:06:07;22.10;99.90
15143;DHT22;7672;50.834;6.286;2023-08-21T02:08:34;21.90;99.90
15143;DHT22;7672;50.834;6.286;2023-08-21T02:11:02;21.90;99.90
15143;DHT22;7672;50.834;6.286;2023-08-21T02:13:29;22.00;99.90
15143;DHT22;7672;50.834;6.286;2023-08-21T02:15:56;22.20;99.90
15143;DHT22;7672;50.834;6.286;2023-08-21T02:18:23;22.00;99.90
15143;DHT22;7672;50.834;6.286;2023-08-21T02:20:50;21.90;99.90
15143;DHT22;7672;50.834;6.286;2023-08-21T02:23:17;22.00;99.90
15143;DHT22;7672;50.834;6.286;2023-08-21T02:25:44;22.00;99.90
15143;DHT22;7672;50.834;6.286;2023-08-21T02:28:12;21.90;99.90
15143;DHT22;7672;50.834;6.286;2023-08-21T02:30:42;22.20;99.90
15143;DHT22;7672;50.834;6.286;2023-08-21T02:33:09;22.10;99.90
15143;DHT22;7672;50.834;6.286;2023-08-21T02:35:38;22.00;99.90
15143;DHT22;7672;50.834;6.286;2023-08-21T02:38:05;22.00;99.90
15143;DHT22;7672;50.834;6.286;2023-08-21T02:40:35;22.10;99.90
15143;DHT22;7672;50.834;6.286;2023-08-21T02:43:03;22.10;99.90
15143;DHT22;7672;50.834;6.286;2023-08-21T02:45:30;22.20;99.90
15143;DHT22;7672;50.834;6.286;2023-08-21T02:47:58;22.00;99.90
15143;DHT22;7672;50.834;6.286;2023-08-21T02:50:25;22.10;99.90
15143;DHT22;7672;50.834;6.286;2023-08-21T02:52:52;22.00;99.90
15143;DHT22;7672;50.834;6.286;2023-08-21T02:55:19;22.00;99.90
15143;DHT22;7672;50.834;6.286;2023-08-21T02:57:47;22.10;99.90
15143;DHT22;7672;50.834;6.286;2023-08-21T03:00:14;22.00;99.90
15143;DHT22;7672;50.834;6.286;2023-08-21T03:02:42;22.00;99.90
15143;DHT22;7672;50.834;6.286;2023-08-21T03:05:11;21.90;99.90
15143;DHT22;7672;50.834;6.286;2023-08-21T03:07:38;22.00;99.90
15143;DHT22;7672;50.834;6.286;2023-08-21T03:10:06;22.00;99.90
15143;DHT22;7672;50.834;6.286;2023-08-21T03:12:34;22.00;99.90
15143;DHT22;7672;50.834;6.286;2023-08-21T03:15:03;22.00;99.90
15143;DHT22;7672;50.834;6.286;2023-08-21T03:17:31;22.00;99.90
15143;DHT22;7672;50.834;6.286;2023-08-21T03:19:58;22.00;99.90
15143;DHT22;7672;50.834;6.286;2023-08-21T03:22:26;22.00;99.90
15143;DHT22;7672;50.834;6.286;2023-08-21T03:24:53;22.10;99.90
15143;DHT22;7672;50.834;6.286;2023-08-21T03:27:22;21.90;99.90
15143;DHT22;7672;50.834;6.286;2023-08-21T03:29:51;21.80;99.90
15143;DHT22;7672;50.834;6.286;2023-08-21T03:32:18;21.90;99.90
15143;DHT22;7672;50.834;6.286;2023-08-21T03:34:46;21.80;99.90
15143;DHT22;7672;50.834;6.286;2023-08-21T03:37:13;22.00;99.90
15143;DHT22;7672;50.834;6.286;2023-08-21T03:39:40;21.90;99.90
15143;DHT22;7672;50.834;6.286;2023-08-21T03:42:10;22.10;99.90
15143;DHT22;7672;50.834;6.286;2023-08-21T03:44:40;21.90;99.90
15143;DHT22;7672;50.834;6.286;2023-08-21T03:47:07;22.10;99.90
15143;DHT22;7672;50.834;6.286;2023-08-21T03:49:43;21.80;99.90
15143;DHT22;7672;50.834;6.286;2023-08-21T03:52:10;21.90;99.90
15143;DHT22;7672;50.834;6.286;2023-08-21T03:54:37;21.80;99.90
15143;DHT22;7672;50.834;6.286;2023-08-21T03:57:05;21.80;99.90
15143;DHT22;7672;50.834;6.286;2023-08-21T03:59:32;21.80;99.90
15143;DHT22;7672;50.834;6.286;2023-08-21T04:02:00;21.80;99.90
15143;DHT22;7672;50.834;6.286;2023-08-21T04:04:27;21.70;99.90
15143;DHT22;7672;50.834;6.286;2023-08-21T04:06:55;21.70;99.90
15143;DHT22;7672;50.834;6.286;2023-08-21T04:09:22;21.80;99.90
15143;DHT22;7672;50.834;6.286;2023-08-21T04:11:49;22.00;99.90
15143;DHT22;7672;50.834;6.286;2023-08-21T04:14:17;21.70;99.90
15143;DHT22;7672;50.834;6.286;2023-08-21T04:16:44;21.70;99.90
15143;DHT22;7672;50.834;6.286;2023-08-21T04:19:11;21.70;99.90
15143;DHT22;7672;50.834;6.286;2023-08-21T04:21:38;21.60;99.90
15143;DHT22;7672;50.834;6.286;2023-08-21T04:24:05;21.60;99.90
15143;DHT22;7672;50.834;6.286;2023-08-21T04:26:33;21.50;99.90
15143;DHT22;7672;50.834;6.286;2023-08-21T04:29:01;21.50;99.90
15143;DHT22;7672;50.834;6.286;2023-08-21T04:31:29;21.50;99.90
15143;DHT22;7672;50.834;6.286;2023-08-21T04:33:56;21.40;99.90
15143;DHT22;7672;50.834;6.286;2023-08-21T04:36:24;21.40;99.90
15143;DHT22;7672;50.834;6.286;2023-08-21T04:38:51;21.30;99.90
15143;DHT22;7672;50.834;6.286;2023-08-21T04:41:18;21.40;99.90
15143;DHT22;7672;50.834;6.286;2023-08-21T04:43:46;21.30;99.90
15143;DHT22;7672;50.834;6.286;2023-08-21T04:46:13;21.30;99.90
15143;DHT22;7672;50.834;6.286;2023-08-21T04:48:42;21.30;99.90
15143;DHT22;7672;50.834;6.286;2023-08-21T04:51:11;21.30;99.90
15143;DHT22;7672;50.834;6.286;2023-08-21T04:53:38;21.40;99.90
15143;DHT22;7672;50.834;6.286;2023-08-21T04:56:10;21.70;99.90
15143;DHT22;7672;50.834;6.286;2023-08-21T04:58:37;21.40;99.90
15143;DHT22;7672;50.834;6.286;2023-08-21T05:01:06;21.30;99.90
15143;DHT22;7672;50.834;6.286;2023-08-21T05:03:36;21.30;99.90
15143;DHT22;7672;50.834;6.286;2023-08-21T05:06:04;21.70;99.90
15143;DHT22;7672;50.834;6.286;2023-08-21T05:08:34;21.40;99.90
15143;DHT22;7672;50.834;6.286;2023-08-21T05:11:02;21.40;99.90
15143;DHT22;7672;50.834;6.286;2023-08-21T05:13:32;21.40;99.90
15143;DHT22;7672;50.834;6.286;2023-08-21T05:16:01;21.60;99.90
15143;DHT22;7672;50.834;6.286;2023-08-21T05:18:33;21.60;99.90
15143;DHT22;7672;50.834;6.286;2023-08-21T05:21:00;21.70;99.90
15143;DHT22;7672;50.834;6.286;2023-08-21T05:23:28;21.70;99.90
15143;DHT22;7672;50.834;6.286;2023-08-21T05:26:00;21.90;99.90
15143;DHT22;7672;50.834;6.286;2023-08-21T05:28:27;21.80;99.90
15143;DHT22;7672;50.834;6.286;2023-08-21T05:30:54;22.00;99.90
15143;DHT22;7672;50.834;6.286;2023-08-21T05:33:21;22.00;99.90
15143;DHT22;7672;50.834;6.286;2023-08-21T05:35:50;22.10;99.90
15143;DHT22;7672;50.834;6.286;2023-08-21T05:38:17;22.30;99.90
15143;DHT22;7672;50.834;6.286;2023-08-21T05:40:44;22.60;99.90
15143;DHT22;7672;50.834;6.286;2023-08-21T05:43:12;22.30;99.90
15143;DHT22;7672;50.834;6.286;2023-08-21T05:45:42;22.30;99.90
15143;DHT22;7672;50.834;6.286;2023-08-21T05:48:11;22.30;99.90
15143;DHT22;7672;50.834;6.286;2023-08-21T05:50:38;22.60;99.90
15143;DHT22;7672;50.834;6.286;2023-08-21T05:53:06;22.60;99.90
15143;DHT22;7672;50.834;6.286;2023-08-21T05:55:33;22.60;99.90
15143;DHT22;7672;50.834;6.286;2023-08-21T05:58:00;22.70;99.90
15143;DHT22;7672;50.834;6.286;2023-08-21T06:00:28;22.80;99.90
15143;DHT22;7672;50.834;6.286;2023-08-21T06:02:55;22.90;99.90
15143;DHT22;7672;50.834;6.286;2023-08-21T06:05:49;23.20;99.90
15143;DHT22;7672;50.834;6.286;2023-08-21T06:08:16;23.40;99.90
15143;DHT22;7672;50.834;6.286;2023-08-21T06:10:45;23.60;99.90
15143;DHT22;7672;50.834;6.286;2023-08-21T06:13:12;23.80;99.90
15143;DHT22;7672;50.834;6.286;2023-08-21T06:15:39;24.00;99.90
15143;DHT22;7672;50.834;6.286;2023-08-21T06:18:06;24.10;99.90
15143;DHT22;7672;50.834;6.286;2023-08-21T06:20:33;24.50;99.90
15143;DHT22;7672;50.834;6.286;2023-08-21T06:23:00;24.70;99.90
15143;DHT22;7672;50.834;6.286;2023-08-21T06:25:27;25.00;99.90
15143;DHT22;7672;50.834;6.286;2023-08-21T06:27:57;25.20;99.90
15143;DHT22;7672;50.834;6.286;2023-08-21T06:30:26;25.40;99.90
15143;DHT22;7672;50.834;6.286;2023-08-21T06:32:54;25.60;99.90
15143;DHT22;7672;50.834;6.286;2023-08-21T06:35:24;25.90;99.90
15143;DHT22;7672;50.834;6.286;2023-08-21T06:37:52;26.10;99.90
15143;DHT22;7672;50.834;6.286;2023-08-21T06:40:21;26.30;99.90
15143;DHT22;7672;50.834;6.286;2023-08-21T06:42:48;26.50;99.90
15143;DHT22;7672;50.834;6.286;2023-08-21T06:45:23;26.70;99.90
15143;DHT22;7672;50.834;6.286;2023-08-21T06:47:51;27.00;99.90
15143;DHT22;7672;50.834;6.286;2023-08-21T06:50:18;27.20;99.90
15143;DHT22;7672;50.834;6.286;2023-08-21T06:52:45;27.50;99.90
15143;DHT22;7672;50.834;6.286;2023-08-21T06:55:13;27.70;99.90
15143;DHT22;7672;50.834;6.286;2023-08-21T06:57:41;27.90;99.90
15143;DHT22;7672;50.834;6.286;2023-08-21T07:00:09;28.20;99.90
15143;DHT22;7672;50.834;6.286;2023-08-21T07:02:37;28.40;99.90
15143;DHT22;7672;50.834;6.286;2023-08-21T07:05:04;28.70;99.90
15143;DHT22;7672;50.834;6.286;2023-08-21T07:07:32;29.00;99.90
15143;DHT22;7672;50.834;6.286;2023-08-21T07:09:59;29.30;99.90
15143;DHT22;7672;50.834;6.286;2023-08-21T07:12:26;29.50;99.90
15143;DHT22;7672;50.834;6.286;2023-08-21T07:14:54;29.90;99.90
15143;DHT22;7672;50.834;6.286;2023-08-21T07:17:21;30.20;99.90
15143;DHT22;7672;50.834;6.286;2023-08-21T07:19:48;30.60;99.90
15143;DHT22;7672;50.834;6.286;2023-08-21T07:22:16;31.10;99.90
15143;DHT22;7672;50.834;6.286;2023-08-21T07:24:43;31.60;99.90
15143;DHT22;7672;50.834;6.286;2023-08-21T07:27:10;32.10;99.90
15143;DHT22;7672;50.834;6.286;2023-08-21T07:29:37;32.60;99.90
15143;DHT22;7672;50.834;6.286;2023-08-21T07:32:04;33.10;99.90
15143;DHT22;7672;50.834;6.286;2023-08-21T07:34:32;33.50;99.90
15143;DHT22;7672;50.834;6.286;2023-08-21T07:36:59;34.00;99.90
15143;DHT22;7672;50.834;6.286;2023-08-21T07:39:26;34.50;99.90
15143;DHT22;7672;50.834;6.286;2023-08-21T07:41:53;34.90;99.90
15143;DHT22;7672;50.834;6.286;2023-08-21T07:44:20;35.30;99.90
15143;DHT22;7672;50.834;6.286;2023-08-21T07:46:48;35.80;99.90
15143;DHT22;7672;50.834;6.286;2023-08-21T07:49:15;36.20;99.90
15143;DHT22;7672;50.834;6.286;2023-08-21T07:51:42;36.50;99.90
15143;DHT22;7672;50.834;6.286;2023-08-21T07:54:09;36.90;99.90
15143;DHT22;7672;50.834;6.286;2023-08-21T07:56:37;37.20;99.90
15143;DHT22;7672;50.834;6.286;2023-08-21T07:59:06;37.50;99.90
15143;DHT22;7672;50.834;6.286;2023-08-21T08:01:33;37.80;99.90
15143;DHT22;7672;50.834;6.286;2023-08-21T08:04:01;38.10;99.90
15143;DHT22;7672;50.834;6.286;2023-08-21T08:06:28;38.40;99.90
15143;DHT22;7672;50.834;6.286;2023-08-21T08:08:55;38.70;99.90
15143;DHT22;7672;50.834;6.286;2023-08-21T08:11:23;38.90;99.90
15143;DHT22;7672;50.834;6.286;2023-08-21T08:13:50;39.20;99.90
15143;DHT22;7672;50.834;6.286;2023-08-21T08:16:17;39.40;99.20
15143;DHT22;7672;50.834;6.286;2023-08-21T08:18:45;39.70;98.50
15143;DHT22;7672;50.834;6.286;2023-08-21T08:21:12;39.90;97.50
15143;DHT22;7672;50.834;6.286;2023-08-21T08:23:39;40.00;96.40
15143;DHT22;7672;50.834;6.286;2023-08-21T08:26:06;40.20;96.70
15143;DHT22;7672;50.834;6.286;2023-08-21T08:28:35;40.40;96.30
15143;DHT22;7672;50.834;6.286;2023-08-21T08:31:02;40.50;94.90
15143;DHT22;7672;50.834;6.286;2023-08-21T08:33:29;40.70;95.20
15143;DHT22;7672;50.834;6.286;2023-08-21T08:35:56;40.90;94.80
15143;DHT22;7672;50.834;6.286;2023-08-21T08:38:24;41.00;93.80
15143;DHT22;7672;50.834;6.286;2023-08-21T08:40:51;41.20;93.20
15143;DHT22;7672;50.834;6.286;2023-08-21T08:43:22;41.40;92.70
15143;DHT22;7672;50.834;6.286;2023-08-21T08:45:52;41.60;92.40
15143;DHT22;7672;50.834;6.286;2023-08-21T08:48:23;41.70;91.10
15143;DHT22;7672;50.834;6.286;2023-08-21T08:50:51;41.90;90.70
15143;DHT22;7672;50.834;6.286;2023-08-21T08:53:18;42.00;90.60
15143;DHT22;7672;50.834;6.286;2023-08-21T08:55:46;42.20;90.80
15143;DHT22;7672;50.834;6.286;2023-08-21T08:58:15;42.30;89.30
15143;DHT22;7672;50.834;6.286;2023-08-21T09:00:42;42.40;89.80
15143;DHT22;7672;50.834;6.286;2023-08-21T09:03:10;42.50;87.80
15143;DHT22;7672;50.834;6.286;2023-08-21T09:05:39;42.50;88.10
15143;DHT22;7672;50.834;6.286;2023-08-21T09:08:11;42.70;86.90
15143;DHT22;7672;50.834;6.286;2023-08-21T09:10:41;42.70;86.90
15143;DHT22;7672;50.834;6.286;2023-08-21T09:13:15;42.80;85.50
15143;DHT22;7672;50.834;6.286;2023-08-21T09:15:46;42.80;84.50
15143;DHT22;7672;50.834;6.286;2023-08-21T09:18:14;42.90;84.20
15143;DHT22;7672;50.834;6.286;2023-08-21T09:20:42;42.90;83.60
15143;DHT22;7672;50.834;6.286;2023-08-21T09:23:17;42.80;84.00
15143;DHT22;7672;50.834;6.286;2023-08-21T09:25:46;42.70;83.90
15143;DHT22;7672;50.834;6.286;2023-08-21T09:28:20;42.60;83.70
15143;DHT22;7672;50.834;6.286;2023-08-21T09:30:54;42.50;82.90
15143;DHT22;7672;50.834;6.286;2023-08-21T09:33:23;42.40;83.80
15143;DHT22;7672;50.834;6.286;2023-08-21T09:35:54;42.30;83.60
15143;DHT22;7672;50.834;6.286;2023-08-21T09:38:22;42.20;82.60
15143;DHT22;7672;50.834;6.286;2023-08-21T09:40:51;42.10;82.40
15143;DHT22;7672;50.834;6.286;2023-08-21T09:43:20;42.10;83.30
15143;DHT22;7672;50.834;6.286;2023-08-21T09:45:50;42.00;83.10
15143;DHT22;7672;50.834;6.286;2023-08-21T09:48:22;42.00;83.10
15143;DHT22;7672;50.834;6.286;2023-08-21T09:50:58;42.10;82.80
15143;DHT22;7672;50.834;6.286;2023-08-21T09:53:28;42.10;83.00
15143;DHT22;7672;50.834;6.286;2023-08-21T09:56:02;42.20;81.70
15143;DHT22;7672;50.834;6.286;2023-08-21T09:58:32;42.20;81.80
15143;DHT22;7672;50.834;6.286;2023-08-21T10:01:01;42.20;82.80
15143;DHT22;7672;50.834;6.286;2023-08-21T10:03:35;42.30;82.30
15143;DHT22;7672;50.834;6.286;2023-08-21T10:06:05;42.50;82.10
15143;DHT22;7672;50.834;6.286;2023-08-21T10:08:39;42.60;80.10
15143;DHT22;7672;50.834;6.286;2023-08-21T10:11:08;42.70;80.10
15143;DHT22;7672;50.834;6.286;2023-08-21T10:13:37;42.80;80.20
15143;DHT22;7672;50.834;6.286;2023-08-21T10:16:05;42.90;80.00
15143;DHT22;7672;50.834;6.286;2023-08-21T10:18:36;43.10;78.40
15143;DHT22;7672;50.834;6.286;2023-08-21T10:23:51;43.20;77.60
15143;DHT22;7672;50.834;6.286;2023-08-21T10:26:22;43.20;76.90
15143;DHT22;7672;50.834;6.286;2023-08-21T10:29:00;43.30;77.60
15143;DHT22;7672;50.834;6.286;2023-08-21T10:31:37;43.30;76.70
15143;DHT22;7672;50.834;6.286;2023-08-21T10:34:13;43.30;76.80
15143;DHT22;7672;50.834;6.286;2023-08-21T10:39:16;43.20;77.00
15143;DHT22;7672;50.834;6.286;2023-08-21T10:42:09;43.20;76.70
15143;DHT22;7672;50.834;6.286;2023-08-21T10:50:08;43.10;76.00
15143;DHT22;7672;50.834;6.286;2023-08-21T10:52:39;43.00;74.00
15143;DHT22;7672;50.834;6.286;2023-08-21T10:55:17;43.00;74.10
15143;DHT22;7672;50.834;6.286;2023-08-21T10:57:48;42.70;74.80
15143;DHT22;7672;50.834;6.286;2023-08-21T11:00:18;42.60;75.60
15143;DHT22;7672;50.834;6.286;2023-08-21T11:02:47;42.40;74.60
15143;DHT22;7672;50.834;6.286;2023-08-21T11:05:16;42.30;73.90
15143;DHT22;7672;50.834;6.286;2023-08-21T11:07:45;42.10;74.90
15143;DHT22;7672;50.834;6.286;2023-08-21T11:10:16;42.00;75.00
15143;DHT22;7672;50.834;6.286;2023-08-21T11:12:55;42.00;74.80
15143;DHT22;7672;50.834;6.286;2023-08-21T11:15:28;41.90;73.70
15143;DHT22;7672;50.834;6.286;2023-08-21T11:18:02;41.80;74.00
15143;DHT22;7672;50.834;6.286;2023-08-21T11:20:30;41.70;74.10
15143;DHT22;7672;50.834;6.286;2023-08-21T11:23:00;41.60;74.10
15143;DHT22;7672;50.834;6.286;2023-08-21T11:25:30;41.50;74.80
15143;DHT22;7672;50.834;6.286;2023-08-21T11:27:58;41.40;75.10
15143;DHT22;7672;50.834;6.286;2023-08-21T11:30:25;41.30;75.70
15143;DHT22;7672;50.834;6.286;2023-08-21T11:33:09;41.10;74.00
15143;DHT22;7672;50.834;6.286;2023-08-21T11:35:39;41.00;75.80
15143;DHT22;7672;50.834;6.286;2023-08-21T11:38:16;40.80;76.30
15143;DHT22;7672;50.834;6.286;2023-08-21T11:40:59;40.60;77.10
15143;DHT22;7672;50.834;6.286;2023-08-21T11:43:38;40.40;76.60
15143;DHT22;7672;50.834;6.286;2023-08-21T11:46:10;40.20;76.80
15143;DHT22;7672;50.834;6.286;2023-08-21T11:48:39;40.00;75.30
15143;DHT22;7672;50.834;6.286;2023-08-21T11:51:08;39.80;75.20
15143;DHT22;7672;50.834;6.286;2023-08-21T11:53:37;39.60;76.10
15143;DHT22;7672;50.834;6.286;2023-08-21T11:56:11;39.30;75.30
15143;DHT22;7672;50.834;6.286;2023-08-21T11:58:44;39.00;77.00
15143;DHT22;7672;50.834;6.286;2023-08-21T12:01:17;38.70;76.90
15143;DHT22;7672;50.834;6.286;2023-08-21T12:03:44;38.50;77.50
15143;DHT22;7672;50.834;6.286;2023-08-21T12:06:12;38.20;78.50
15143;DHT22;7672;50.834;6.286;2023-08-21T12:08:40;38.00;78.00
15143;DHT22;7672;50.834;6.286;2023-08-21T12:11:07;37.80;79.40
15143;DHT22;7672;50.834;6.286;2023-08-21T12:13:35;37.70;79.20
15143;DHT22;7672;50.834;6.286;2023-08-21T12:16:03;37.60;77.80
15143;DHT22;7672;50.834;6.286;2023-08-21T12:18:31;37.50;78.70
15143;DHT22;7672;50.834;6.286;2023-08-21T12:20:58;37.40;79.30
15143;DHT22;7672;50.834;6.286;2023-08-21T12:23:25;37.40;80.10
15143;DHT22;7672;50.834;6.286;2023-08-21T12:25:52;37.40;78.60
15143;DHT22;7672;50.834;6.286;2023-08-21T12:28:19;37.20;78.10
15143;DHT22;7672;50.834;6.286;2023-08-21T12:30:46;37.20;77.40
15143;DHT22;7672;50.834;6.286;2023-08-21T12:33:14;37.10;79.60
15143;DHT22;7672;50.834;6.286;2023-08-21T12:35:50;36.90;77.20
15143;DHT22;7672;50.834;6.286;2023-08-21T12:38:18;36.80;79.00
15143;DHT22;7672;50.834;6.286;2023-08-21T12:40:45;36.70;81.20
15143;DHT22;7672;50.834;6.286;2023-08-21T12:43:12;36.60;78.90
15143;DHT22;7672;50.834;6.286;2023-08-21T12:45:39;36.50;79.10
15143;DHT22;7672;50.834;6.286;2023-08-21T12:48:07;36.40;79.30
15143;DHT22;7672;50.834;6.286;2023-08-21T12:50:35;36.40;79.10
15143;DHT22;7672;50.834;6.286;2023-08-21T12:53:02;36.30;79.20
15143;DHT22;7672;50.834;6.286;2023-08-21T12:55:29;36.10;80.40
15143;DHT22;7672;50.834;6.286;2023-08-21T12:57:57;36.20;81.50
15143;DHT22;7672;50.834;6.286;2023-08-21T13:00:24;36.20;79.30
15143;DHT22;7672;50.834;6.286;2023-08-21T13:02:51;36.20;80.70
15143;DHT22;7672;50.834;6.286;2023-08-21T13:05:19;36.20;80.00
15143;DHT22;7672;50.834;6.286;2023-08-21T13:07:46;36.10;79.00
15143;DHT22;7672;50.834;6.286;2023-08-21T13:10:13;36.10;78.70
15143;DHT22;7672;50.834;6.286;2023-08-21T13:12:41;36.00;77.50
15143;DHT22;7672;50.834;6.286;2023-08-21T13:15:09;35.90;77.90
15143;DHT22;7672;50.834;6.286;2023-08-21T13:17:36;35.80;78.80
15143;DHT22;7672;50.834;6.286;2023-08-21T13:20:04;35.60;78.90
15143;DHT22;7672;50.834;6.286;2023-08-21T13:25:15;35.40;81.30
15143;DHT22;7672;50.834;6.286;2023-08-21T13:27:44;35.40;79.50
15143;DHT22;7672;50.834;6.286;2023-08-21T13:30:12;35.30;81.10
15143;DHT22;7672;50.834;6.286;2023-08-21T13:32:40;35.20;79.80
15143;DHT22;7672;50.834;6.286;2023-08-21T13:35:07;35.10;80.60
15143;DHT22;7672;50.834;6.286;2023-08-21T13:37:39;35.10;80.30
15143;DHT22;7672;50.834;6.286;2023-08-21T13:40:08;35.10;79.80
15143;DHT22;7672;50.834;6.286;2023-08-21T13:42:44;35.00;79.50
15143;DHT22;7672;50.834;6.286;2023-08-21T13:45:15;34.80;79.60
15143;DHT22;7672;50.834;6.286;2023-08-21T13:47:48;34.70;79.70
15143;DHT22;7672;50.834;6.286;2023-08-21T13:50:17;34.60;80.10
15143;DHT22;7672;50.834;6.286;2023-08-21T13:52:46;34.40;82.00
15143;DHT22;7672;50.834;6.286;2023-08-21T13:55:14;34.30;80.90
15143;DHT22;7672;50.834;6.286;2023-08-21T13:57:43;34.20;81.10
15143;DHT22;7672;50.834;6.286;2023-08-21T14:00:11;34.10;83.40
15143;DHT22;7672;50.834;6.286;2023-08-21T14:02:42;34.10;82.10
15143;DHT22;7672;50.834;6.286;2023-08-21T14:05:10;34.00;81.40
15143;DHT22;7672;50.834;6.286;2023-08-21T14:07:38;33.90;82.60
15143;DHT22;7672;50.834;6.286;2023-08-21T14:10:08;33.90;83.50
15143;DHT22;7672;50.834;6.286;2023-08-21T14:12:36;33.80;85.00
15143;DHT22;7672;50.834;6.286;2023-08-21T14:15:08;33.70;83.00
15143;DHT22;7672;50.834;6.286;2023-08-21T14:17:36;33.70;83.10
15143;DHT22;7672;50.834;6.286;2023-08-21T14:20:05;33.60;83.50
15143;DHT22;7672;50.834;6.286;2023-08-21T14:22:34;33.60;82.80
15143;DHT22;7672;50.834;6.286;2023-08-21T14:25:01;33.50;84.10
15143;DHT22;7672;50.834;6.286;2023-08-21T14:27:32;33.40;83.40
15143;DHT22;7672;50.834;6.286;2023-08-21T14:30:00;33.30;83.50
15143;DHT22;7672;50.834;6.286;2023-08-21T14:32:27;33.10;83.80
15143;DHT22;7672;50.834;6.286;2023-08-21T14:34:55;32.90;84.70
15143;DHT22;7672;50.834;6.286;2023-08-21T14:37:22;32.80;84.80
15143;DHT22;7672;50.834;6.286;2023-08-21T14:39:50;32.80;84.30
15143;DHT22;7672;50.834;6.286;2023-08-21T14:42:17;32.70;85.20
15143;DHT22;7672;50.834;6.286;2023-08-21T14:44:45;32.70;85.40
15143;DHT22;7672;50.834;6.286;2023-08-21T14:47:13;32.60;86.00
15143;DHT22;7672;50.834;6.286;2023-08-21T14:49:40;32.50;86.60
15143;DHT22;7672;50.834;6.286;2023-08-21T14:52:08;32.50;86.60
15143;DHT22;7672;50.834;6.286;2023-08-21T14:54:35;32.50;88.20
15143;DHT22;7672;50.834;6.286;2023-08-21T14:57:02;32.40;88.40
15143;DHT22;7672;50.834;6.286;2023-08-21T14:59:29;32.40;87.00
15143;DHT22;7672;50.834;6.286;2023-08-21T15:01:57;32.40;87.00
15143;DHT22;7672;50.834;6.286;2023-08-21T15:04:24;32.50;88.00
15143;DHT22;7672;50.834;6.286;2023-08-21T15:06:51;32.40;86.80
15143;DHT22;7672;50.834;6.286;2023-08-21T15:09:19;32.40;87.90
15143;DHT22;7672;50.834;6.286;2023-08-21T15:11:46;32.40;87.60
15143;DHT22;7672;50.834;6.286;2023-08-21T15:14:13;32.40;89.70
15143;DHT22;7672;50.834;6.286;2023-08-21T15:16:40;32.40;89.10
15143;DHT22;7672;50.834;6.286;2023-08-21T15:19:08;31.70;88.50
15143;DHT22;7672;50.834;6.286;2023-08-21T15:21:35;32.40;88.20
15143;DHT22;7672;50.834;6.286;2023-08-21T15:24:02;32.40;89.70
15143;DHT22;7672;50.834;6.286;2023-08-21T15:26:31;32.40;89.30
15143;DHT22;7672;50.834;6.286;2023-08-21T15:28:59;32.40;88.80
15143;DHT22;7672;50.834;6.286;2023-08-21T15:31:27;32.30;88.30
15143;DHT22;7672;50.834;6.286;2023-08-21T15:33:54;32.20;88.40
15143;DHT22;7672;50.834;6.286;2023-08-21T15:36:22;32.20;89.10
15143;DHT22;7672;50.834;6.286;2023-08-21T15:38:49;32.10;88.60
15143;DHT22;7672;50.834;6.286;2023-08-21T15:41:16;32.10;89.10
15143;DHT22;7672;50.834;6.286;2023-08-21T15:43:43;32.00;88.90
15143;DHT22;7672;50.834;6.286;2023-08-21T15:46:11;31.90;89.70
15143;DHT22;7672;50.834;6.286;2023-08-21T15:48:38;31.80;89.40
15143;DHT22;7672;50.834;6.286;2023-08-21T15:51:05;31.80;90.00
15143;DHT22;7672;50.834;6.286;2023-08-21T15:53:32;31.70;90.00
15143;DHT22;7672;50.834;6.286;2023-08-21T15:55:59;31.60;90.00
15143;DHT22;7672;50.834;6.286;2023-08-21T15:58:26;31.50;89.60
15143;DHT22;7672;50.834;6.286;2023-08-21T16:00:57;31.40;90.20
15143;DHT22;7672;50.834;6.286;2023-08-21T16:03:27;31.30;90.10
15143;DHT22;7672;50.834;6.286;2023-08-21T16:05:54;31.30;90.80
15143;DHT22;7672;50.834;6.286;2023-08-21T16:08:21;31.10;90.70